sensor_id;sensor_type;location;lat;lon;timestamp;temperature;humidity
12967;DHT22;6548;49.996;8.238;2022-10-04T00:01:54;6.80;99.90
12967;DHT22;6548;49.996;8.238;2022-10-04T00:06:58;6.80;99.90
12967;DHT22;6548;49.996;8.238;2022-10-04T00:09:49;6.80;99.90
12967;DHT22;6548;49.996;8.238;2022-10-04T00:12:23;6.70;99.90
12967;DHT22;6548;49.996;8.238;2022-10-04T00:14:51;6.70;99.90
12967;DHT22;6548;49.996;8.238;2022-10-04T00:17:23;6.60;99.90
12967;DHT22;6548;49.996;8.238;2022-10-04T00:19:51;6.60;99.90
12967;DHT22;6548;49.996;8.238;2022-10-04T00:22:22;6.70;99.90
12967;DHT22;6548;49.996;8.238;2022-10-04T00:27:26;6.70;99.90
12967;DHT22;6548;49.996;8.238;2022-10-04T00:34:57;6.70;99.90
12967;DHT22;6548;49.996;8.238;2022-10-04T00:37:24;6.80;99.90
12967;DHT22;6548;49.996;8.238;2022-10-04T00:40:11;6.80;99.90
12967;DHT22;6548;49.996;8.238;2022-10-04T00:42:55;6.90;99.90
12967;DHT22;6548;49.996;8.238;2022-10-04T00:45:45;6.80;99.90
12967;DHT22;6548;49.996;8.238;2022-10-04T00:48:40;6.70;99.90
12967;DHT22;6548;49.996;8.238;2022-10-04T00:56:40;6.60;99.90
12967;DHT22;6548;49.996;8.238;2022-10-04T01:01:38;6.40;99.90
12967;DHT22;6548;49.996;8.238;2022-10-04T01:04:07;6.40;99.90
12967;DHT22;6548;49.996;8.238;2022-10-04T01:06:36;6.40;99.90
12967;DHT22;6548;49.996;8.238;2022-10-04T01:09:06;6.50;99.90
12967;DHT22;6548;49.996;8.238;2022-10-04T01:11:43;6.50;99.90
12967;DHT22;6548;49.996;8.238;2022-10-04T01:14:51;6.50;99.90
12967;DHT22;6548;49.996;8.238;2022-10-04T01:17:19;6.40;99.90
12967;DHT22;6548;49.996;8.238;2022-10-04T01:19:53;6.40;99.90
12967;DHT22;6548;49.996;8.238;2022-10-04T01:24:56;6.20;99.90
12967;DHT22;6548;49.996;8.238;2022-10-04T01:27:45;6.20;99.90
12967;DHT22;6548;49.996;8.238;2022-10-04T01:30:14;6.20;99.90
12967;DHT22;6548;49.996;8.238;2022-10-04T01:32:40;6.20;99.90
12967;DHT22;6548;49.996;8.238;2022-10-04T01:35:09;6.20;99.90
12967;DHT22;6548;49.996;8.238;2022-10-04T01:37:37;6.10;99.90
12967;DHT22;6548;49.996;8.238;2022-10-04T01:40:05;6.10;99.90
12967;DHT22;6548;49.996;8.238;2022-10-04T01:42:43;6.10;99.90
12967;DHT22;6548;49.996;8.238;2022-10-04T01:45:23;6.10;99.90
12967;DHT22;6548;49.996;8.238;2022-10-04T01:47:52;6.00;99.90
12967;DHT22;6548;49.996;8.238;2022-10-04T01:50:34;6.10;99.90
12967;DHT22;6548;49.996;8.238;2022-10-04T01:55:35;6.10;99.90
12967;DHT22;6548;49.996;8.238;2022-10-04T01:58:25;6.20;99.90
12967;DHT22;6548;49.996;8.238;2022-10-04T02:00:56;6.10;99.90
12967;DHT22;6548;49.996;8.238;2022-10-04T02:03:44;6.00;99.90
12967;DHT22;6548;49.996;8.238;2022-10-04T02:06:16;6.00;99.90
12967;DHT22;6548;49.996;8.238;2022-10-04T02:08:48;6.00;99.90
12967;DHT22;6548;49.996;8.238;2022-10-04T02:11:19;6.00;99.90
12967;DHT22;6548;49.996;8.238;2022-10-04T02:13:48;5.90;99.90
12967;DHT22;6548;49.996;8.238;2022-10-04T02:16:16;5.90;99.90
12967;DHT22;6548;49.996;8.238;2022-10-04T02:18:42;5.90;99.90
12967;DHT22;6548;49.996;8.238;2022-10-04T02:21:10;6.00;99.90
12967;DHT22;6548;49.996;8.238;2022-10-04T02:23:36;5.90;99.90
12967;DHT22;6548;49.996;8.238;2022-10-04T02:26:05;6.00;99.90
12967;DHT22;6548;49.996;8.238;2022-10-04T02:28:31;6.00;99.90
12967;DHT22;6548;49.996;8.238;2022-10-04T02:30:58;5.90;99.90
12967;DHT22;6548;49.996;8.238;2022-10-04T02:33:45;5.90;99.90
12967;DHT22;6548;49.996;8.238;2022-10-04T02:36:12;5.90;99.90
12967;DHT22;6548;49.996;8.238;2022-10-04T02:39:03;5.90;99.90
12967;DHT22;6548;49.996;8.238;2022-10-04T02:41:31;5.90;99.90
12967;DHT22;6548;49.996;8.238;2022-10-04T02:44:20;5.90;99.90
12967;DHT22;6548;49.996;8.238;2022-10-04T02:46:50;5.80;99.90
12967;DHT22;6548;49.996;8.238;2022-10-04T02:57:40;6.00;99.90
12967;DHT22;6548;49.996;8.238;2022-10-04T03:02:31;6.00;99.90
12967;DHT22;6548;49.996;8.238;2022-10-04T03:05:09;5.90;99.90
12967;DHT22;6548;49.996;8.238;2022-10-04T03:07:37;5.90;99.90
12967;DHT22;6548;49.996;8.238;2022-10-04T03:10:09;5.90;99.90
12967;DHT22;6548;49.996;8.238;2022-10-04T03:12:37;5.90;99.90
12967;DHT22;6548;49.996;8.238;2022-10-04T03:15:06;5.80;99.90
12967;DHT22;6548;49.996;8.238;2022-10-04T03:17:33;5.80;99.90
12967;DHT22;6548;49.996;8.238;2022-10-04T03:19:59;5.80;99.90
12967;DHT22;6548;49.996;8.238;2022-10-04T03:22:25;5.80;99.90
12967;DHT22;6548;49.996;8.238;2022-10-04T03:24:53;5.80;99.90
12967;DHT22;6548;49.996;8.238;2022-10-04T03:27:28;5.90;99.90
12967;DHT22;6548;49.996;8.238;2022-10-04T03:29:55;5.90;99.90
12967;DHT22;6548;49.996;8.238;2022-10-04T03:32:24;5.90;99.90
12967;DHT22;6548;49.996;8.238;2022-10-04T03:35:02;5.90;99.90
12967;DHT22;6548;49.996;8.238;2022-10-04T03:37:30;6.00;99.90
12967;DHT22;6548;49.996;8.238;2022-10-04T03:40:00;6.10;99.90
12967;DHT22;6548;49.996;8.238;2022-10-04T03:42:35;6.10;99.90
12967;DHT22;6548;49.996;8.238;2022-10-04T03:45:13;6.10;99.90
12967;DHT22;6548;49.996;8.238;2022-10-04T03:47:43;6.20;99.90
12967;DHT22;6548;49.996;8.238;2022-10-04T03:50:20;6.10;99.90
12967;DHT22;6548;49.996;8.238;2022-10-04T03:53:14;6.10;99.90
12967;DHT22;6548;49.996;8.238;2022-10-04T03:55:43;6.20;99.90
12967;DHT22;6548;49.996;8.238;2022-10-04T03:58:10;6.20;99.90
12967;DHT22;6548;49.996;8.238;2022-10-04T04:03:56;6.20;99.90
12967;DHT22;6548;49.996;8.238;2022-10-04T04:06:31;6.20;99.90
12967;DHT22;6548;49.996;8.238;2022-10-04T04:09:00;6.20;99.90
12967;DHT22;6548;49.996;8.238;2022-10-04T04:11:28;6.20;99.90
12967;DHT22;6548;49.996;8.238;2022-10-04T04:14:07;6.20;99.90
12967;DHT22;6548;49.996;8.238;2022-10-04T04:16:36;6.20;99.90
12967;DHT22;6548;49.996;8.238;2022-10-04T04:19:08;6.20;99.90
12967;DHT22;6548;49.996;8.238;2022-10-04T04:21:36;6.20;99.90
12967;DHT22;6548;49.996;8.238;2022-10-04T04:24:13;6.30;99.90
12967;DHT22;6548;49.996;8.238;2022-10-04T04:26:46;6.30;99.90
12967;DHT22;6548;49.996;8.238;2022-10-04T04:29:26;6.30;99.90
12967;DHT22;6548;49.996;8.238;2022-10-04T04:32:03;6.30;99.90
12967;DHT22;6548;49.996;8.238;2022-10-04T04:34:33;6.30;99.90
12967;DHT22;6548;49.996;8.238;2022-10-04T04:37:03;6.20;99.90
12967;DHT22;6548;49.996;8.238;2022-10-04T04:39:30;6.20;99.90
12967;DHT22;6548;49.996;8.238;2022-10-04T04:44:57;6.20;99.90
12967;DHT22;6548;49.996;8.238;2022-10-04T04:47:36;6.20;99.90
12967;DHT22;6548;49.996;8.238;2022-10-04T04:50:19;6.10;99.90
12967;DHT22;6548;49.996;8.238;2022-10-04T04:52:51;6.10;99.90
12967;DHT22;6548;49.996;8.238;2022-10-04T04:55:19;6.20;99.90
12967;DHT22;6548;49.996;8.238;2022-10-04T04:57:50;6.20;99.90
12967;DHT22;6548;49.996;8.238;2022-10-04T05:00:20;6.10;99.90
12967;DHT22;6548;49.996;8.238;2022-10-04T05:02:59;6.10;99.90
12967;DHT22;6548;49.996;8.238;2022-10-04T05:05:29;6.00;99.90
12967;DHT22;6548;49.996;8.238;2022-10-04T05:10:44;5.90;99.90
12967;DHT22;6548;49.996;8.238;2022-10-04T05:13:11;5.90;99.90
12967;DHT22;6548;49.996;8.238;2022-10-04T05:15:39;5.80;99.90
12967;DHT22;6548;49.996;8.238;2022-10-04T05:18:34;5.90;99.90
12967;DHT22;6548;49.996;8.238;2022-10-04T05:21:06;5.90;99.90
12967;DHT22;6548;49.996;8.238;2022-10-04T05:23:33;5.90;99.90
12967;DHT22;6548;49.996;8.238;2022-10-04T05:26:01;6.00;99.90
12967;DHT22;6548;49.996;8.238;2022-10-04T05:28:29;6.00;99.90
12967;DHT22;6548;49.996;8.238;2022-10-04T05:31:24;6.10;99.90
12967;DHT22;6548;49.996;8.238;2022-10-04T05:34:14;6.20;99.90
12967;DHT22;6548;49.996;8.238;2022-10-04T05:37:06;6.30;99.90
12967;DHT22;6548;49.996;8.238;2022-10-04T05:42:36;6.30;99.90
12967;DHT22;6548;49.996;8.238;2022-10-04T05:45:18;6.30;99.90
12967;DHT22;6548;49.996;8.238;2022-10-04T05:47:46;6.30;99.90
12967;DHT22;6548;49.996;8.238;2022-10-04T05:50:16;6.40;99.90
12967;DHT22;6548;49.996;8.238;2022-10-04T05:52:42;6.30;99.90
12967;DHT22;6548;49.996;8.238;2022-10-04T06:01:07;6.50;99.90
12967;DHT22;6548;49.996;8.238;2022-10-04T06:14:14;6.70;99.90
12967;DHT22;6548;49.996;8.238;2022-10-04T06:16:51;6.70;99.90
12967;DHT22;6548;49.996;8.238;2022-10-04T06:19:44;6.70;99.90
12967;DHT22;6548;49.996;8.238;2022-10-04T06:22:22;6.80;99.90
12967;DHT22;6548;49.996;8.238;2022-10-04T06:24:51;6.90;99.90
12967;DHT22;6548;49.996;8.238;2022-10-04T06:27:34;6.90;99.90
12967;DHT22;6548;49.996;8.238;2022-10-04T06:30:12;6.90;99.90
12967;DHT22;6548;49.996;8.238;2022-10-04T06:36:06;7.20;99.90
12967;DHT22;6548;49.996;8.238;2022-10-04T06:49:56;7.50;99.90
12967;DHT22;6548;49.996;8.238;2022-10-04T06:53:09;7.40;99.90
12967;DHT22;6548;49.996;8.238;2022-10-04T06:58:46;7.70;99.90
12967;DHT22;6548;49.996;8.238;2022-10-04T07:01:31;7.80;99.90
12967;DHT22;6548;49.996;8.238;2022-10-04T07:04:16;8.10;99.90
12967;DHT22;6548;49.996;8.238;2022-10-04T07:09:22;8.60;99.90
12967;DHT22;6548;49.996;8.238;2022-10-04T07:12:00;8.80;99.90
12967;DHT22;6548;49.996;8.238;2022-10-04T07:14:38;9.10;99.90
12967;DHT22;6548;49.996;8.238;2022-10-04T07:17:34;9.40;99.90
12967;DHT22;6548;49.996;8.238;2022-10-04T07:20:02;9.50;99.90
12967;DHT22;6548;49.996;8.238;2022-10-04T07:22:35;9.50;99.90
12967;DHT22;6548;49.996;8.238;2022-10-04T07:25:04;9.50;99.90
12967;DHT22;6548;49.996;8.238;2022-10-04T07:27:51;9.50;99.90
12967;DHT22;6548;49.996;8.238;2022-10-04T07:30:47;9.20;99.90
12967;DHT22;6548;49.996;8.238;2022-10-04T07:33:21;9.10;99.90
12967;DHT22;6548;49.996;8.238;2022-10-04T07:35:50;9.00;99.90
12967;DHT22;6548;49.996;8.238;2022-10-04T07:38:28;9.20;99.90
12967;DHT22;6548;49.996;8.238;2022-10-04T07:41:12;9.20;99.90
12967;DHT22;6548;49.996;8.238;2022-10-04T07:43:52;9.10;99.90
12967;DHT22;6548;49.996;8.238;2022-10-04T07:46:49;9.30;99.90
12967;DHT22;6548;49.996;8.238;2022-10-04T07:49:19;9.30;99.90
12967;DHT22;6548;49.996;8.238;2022-10-04T07:57:36;9.70;99.90
12967;DHT22;6548;49.996;8.238;2022-10-04T08:00:16;10.40;99.90
12967;DHT22;6548;49.996;8.238;2022-10-04T08:05:33;10.40;99.90
12967;DHT22;6548;49.996;8.238;2022-10-04T08:14:12;10.50;99.90
12967;DHT22;6548;49.996;8.238;2022-10-04T08:24:58;11.00;99.90
12967;DHT22;6548;49.996;8.238;2022-10-04T08:27:29;11.40;99.90
12967;DHT22;6548;49.996;8.238;2022-10-04T08:38:08;11.80;99.90
12967;DHT22;6548;49.996;8.238;2022-10-04T08:41:32;12.10;99.90
12967;DHT22;6548;49.996;8.238;2022-10-04T08:57:43;13.60;99.90
12967;DHT22;6548;49.996;8.238;2022-10-04T09:17:15;12.70;99.90
12967;DHT22;6548;49.996;8.238;2022-10-04T09:19:52;13.20;99.90
12967;DHT22;6548;49.996;8.238;2022-10-04T09:23:02;13.80;99.90
12967;DHT22;6548;49.996;8.238;2022-10-04T09:39:18;14.30;99.90
12967;DHT22;6548;49.996;8.238;2022-10-04T09:47:45;15.30;99.90
12967;DHT22;6548;49.996;8.238;2022-10-04T09:50:33;15.60;99.90
12967;DHT22;6548;49.996;8.238;2022-10-04T09:58:30;16.60;99.90
12967;DHT22;6548;49.996;8.238;2022-10-04T10:07:03;16.00;99.90
12967;DHT22;6548;49.996;8.238;2022-10-04T10:15:54;13.80;99.90
12967;DHT22;6548;49.996;8.238;2022-10-04T10:18:44;13.80;99.90
12967;DHT22;6548;49.996;8.238;2022-10-04T10:21:24;14.10;99.90
12967;DHT22;6548;49.996;8.238;2022-10-04T10:26:29;14.90;99.90
12967;DHT22;6548;49.996;8.238;2022-10-04T10:37:34;14.50;99.90
12967;DHT22;6548;49.996;8.238;2022-10-04T10:40:30;14.70;99.90
12967;DHT22;6548;49.996;8.238;2022-10-04T10:48:44;14.20;99.90
12967;DHT22;6548;49.996;8.238;2022-10-04T10:51:46;15.10;99.90
12967;DHT22;6548;49.996;8.238;2022-10-04T11:13:43;14.90;99.90
12967;DHT22;6548;49.996;8.238;2022-10-04T11:27:50;15.50;99.90
12967;DHT22;6548;49.996;8.238;2022-10-04T11:33:28;16.30;99.90
12967;DHT22;6548;49.996;8.238;2022-10-04T11:38:51;16.00;99.90
12967;DHT22;6548;49.996;8.238;2022-10-04T11:55:50;16.60;99.90
12967;DHT22;6548;49.996;8.238;2022-10-04T11:58:32;17.00;99.90
12967;DHT22;6548;49.996;8.238;2022-10-04T12:04:04;16.40;99.90
12967;DHT22;6548;49.996;8.238;2022-10-04T12:07:00;16.60;99.90
12967;DHT22;6548;49.996;8.238;2022-10-04T12:15:17;16.00;99.90
12967;DHT22;6548;49.996;8.238;2022-10-04T12:31:31;18.40;99.90
12967;DHT22;6548;49.996;8.238;2022-10-04T12:42:54;19.40;99.90
12967;DHT22;6548;49.996;8.238;2022-10-04T12:57:30;20.10;99.90
12967;DHT22;6548;49.996;8.238;2022-10-04T13:00:15;19.30;99.90
12967;DHT22;6548;49.996;8.238;2022-10-04T13:03:16;19.20;99.90
12967;DHT22;6548;49.996;8.238;2022-10-04T13:16:18;18.40;99.90
12967;DHT22;6548;49.996;8.238;2022-10-04T13:18:54;19.30;99.90
12967;DHT22;6548;49.996;8.238;2022-10-04T13:26:42;19.80;99.90
12967;DHT22;6548;49.996;8.238;2022-10-04T13:48:17;20.10;99.90
12967;DHT22;6548;49.996;8.238;2022-10-04T14:05:30;19.20;99.90
12967;DHT22;6548;49.996;8.238;2022-10-04T14:11:00;20.00;99.90
12967;DHT22;6548;49.996;8.238;2022-10-04T14:16:24;18.40;99.90
12967;DHT22;6548;49.996;8.238;2022-10-04T14:19:28;18.30;99.90
12967;DHT22;6548;49.996;8.238;2022-10-04T14:31:10;18.40;99.90
12967;DHT22;6548;49.996;8.238;2022-10-04T15:01:17;18.80;99.90
12967;DHT22;6548;49.996;8.238;2022-10-04T15:06:37;19.80;99.90
12967;DHT22;6548;49.996;8.238;2022-10-04T15:20:36;20.00;99.90
12967;DHT22;6548;49.996;8.238;2022-10-04T15:23:15;20.00;99.90
12967;DHT22;6548;49.996;8.238;2022-10-04T15:31:40;18.80;99.90
12967;DHT22;6548;49.996;8.238;2022-10-04T15:42:37;18.40;99.90
12967;DHT22;6548;49.996;8.238;2022-10-04T15:51:09;18.20;99.90
12967;DHT22;6548;49.996;8.238;2022-10-04T15:56:34;18.00;99.90
12967;DHT22;6548;49.996;8.238;2022-10-04T15:59:32;18.20;99.90
12967;DHT22;6548;49.996;8.238;2022-10-04T16:10:16;17.90;99.90
12967;DHT22;6548;49.996;8.238;2022-10-04T16:15:34;17.70;99.90
12967;DHT22;6548;49.996;8.238;2022-10-04T16:20:59;17.60;99.90
12967;DHT22;6548;49.996;8.238;2022-10-04T16:23:32;17.40;99.90
12967;DHT22;6548;49.996;8.238;2022-10-04T16:39:36;17.40;99.90
12967;DHT22;6548;49.996;8.238;2022-10-04T16:42:40;17.00;99.90
12967;DHT22;6548;49.996;8.238;2022-10-04T16:47:47;16.40;99.90
12967;DHT22;6548;49.996;8.238;2022-10-04T16:53:49;16.00;99.90
12967;DHT22;6548;49.996;8.238;2022-10-04T16:56:20;15.80;99.90
12967;DHT22;6548;49.996;8.238;2022-10-04T17:01:41;15.30;99.90
12967;DHT22;6548;49.996;8.238;2022-10-04T17:04:27;15.10;99.90
12967;DHT22;6548;49.996;8.238;2022-10-04T17:07:02;15.00;99.90
12967;DHT22;6548;49.996;8.238;2022-10-04T17:09:57;14.80;99.90
12967;DHT22;6548;49.996;8.238;2022-10-04T17:12:56;14.60;99.90
12967;DHT22;6548;49.996;8.238;2022-10-04T17:21:02;14.20;99.90
12967;DHT22;6548;49.996;8.238;2022-10-04T17:24:10;14.00;99.90
12967;DHT22;6548;49.996;8.238;2022-10-04T17:29:37;13.80;99.90
12967;DHT22;6548;49.996;8.238;2022-10-04T17:38:07;13.50;99.90
12967;DHT22;6548;49.996;8.238;2022-10-04T17:46:04;13.20;99.90
12967;DHT22;6548;49.996;8.238;2022-10-04T17:48:33;13.30;99.90
12967;DHT22;6548;49.996;8.238;2022-10-04T17:54:14;13.10;99.90
12967;DHT22;6548;49.996;8.238;2022-10-04T17:59:36;12.90;99.90
12967;DHT22;6548;49.996;8.238;2022-10-04T18:02:10;12.80;99.90
12967;DHT22;6548;49.996;8.238;2022-10-04T18:05:03;12.70;99.90
12967;DHT22;6548;49.996;8.238;2022-10-04T18:07:43;12.70;99.90
12967;DHT22;6548;49.996;8.238;2022-10-04T18:10:31;12.60;99.90
12967;DHT22;6548;49.996;8.238;2022-10-04T18:12:59;12.50;99.90
12967;DHT22;6548;49.996;8.238;2022-10-04T18:15:35;12.40;99.90
12967;DHT22;6548;49.996;8.238;2022-10-04T18:18:24;12.30;99.90
12967;DHT22;6548;49.996;8.238;2022-10-04T18:23:54;12.30;99.90
12967;DHT22;6548;49.996;8.238;2022-10-04T18:26:20;12.20;99.90
12967;DHT22;6548;49.996;8.238;2022-10-04T18:28:48;12.10;99.90
12967;DHT22;6548;49.996;8.238;2022-10-04T18:31:25;12.10;99.90
12967;DHT22;6548;49.996;8.238;2022-10-04T18:33:54;12.00;99.90
12967;DHT22;6548;49.996;8.238;2022-10-04T18:36:23;12.00;99.90
12967;DHT22;6548;49.996;8.238;2022-10-04T18:41:43;11.80;99.90
12967;DHT22;6548;49.996;8.238;2022-10-04T18:44:30;11.70;99.90
12967;DHT22;6548;49.996;8.238;2022-10-04T18:49:53;11.70;99.90
12967;DHT22;6548;49.996;8.238;2022-10-04T18:52:40;11.60;99.90
12967;DHT22;6548;49.996;8.238;2022-10-04T18:58:34;11.50;99.90
12967;DHT22;6548;49.996;8.238;2022-10-04T19:04:33;11.40;99.90
12967;DHT22;6548;49.996;8.238;2022-10-04T19:10:03;11.30;99.90
12967;DHT22;6548;49.996;8.238;2022-10-04T19:12:40;11.30;99.90
12967;DHT22;6548;49.996;8.238;2022-10-04T19:18:03;11.20;99.90
12967;DHT22;6548;49.996;8.238;2022-10-04T19:20:53;11.10;99.90
12967;DHT22;6548;49.996;8.238;2022-10-04T19:24:02;11.10;99.90
12967;DHT22;6548;49.996;8.238;2022-10-04T19:26:37;11.10;99.90
12967;DHT22;6548;49.996;8.238;2022-10-04T19:31:58;11.00;99.90
12967;DHT22;6548;49.996;8.238;2022-10-04T19:37:11;10.90;99.90
12967;DHT22;6548;49.996;8.238;2022-10-04T19:40:00;10.90;99.90
12967;DHT22;6548;49.996;8.238;2022-10-04T19:45:28;10.70;99.90
12967;DHT22;6548;49.996;8.238;2022-10-04T19:47:59;10.70;99.90
12967;DHT22;6548;49.996;8.238;2022-10-04T19:50:41;10.70;99.90
12967;DHT22;6548;49.996;8.238;2022-10-04T19:53:36;10.60;99.90
12967;DHT22;6548;49.996;8.238;2022-10-04T19:59:04;10.50;99.90
12967;DHT22;6548;49.996;8.238;2022-10-04T20:01:31;10.40;99.90
12967;DHT22;6548;49.996;8.238;2022-10-04T20:03:57;10.50;99.90
12967;DHT22;6548;49.996;8.238;2022-10-04T20:06:52;10.50;99.90
12967;DHT22;6548;49.996;8.238;2022-10-04T20:11:50;10.30;99.90
12967;DHT22;6548;49.996;8.238;2022-10-04T20:21:46;10.10;99.90
12967;DHT22;6548;49.996;8.238;2022-10-04T20:27:05;10.10;99.90
12967;DHT22;6548;49.996;8.238;2022-10-04T20:35:08;10.10;99.90
12967;DHT22;6548;49.996;8.238;2022-10-04T20:40:54;9.90;99.90
12967;DHT22;6548;49.996;8.238;2022-10-04T20:45:51;9.80;99.90
12967;DHT22;6548;49.996;8.238;2022-10-04T20:48:21;9.70;99.90
12967;DHT22;6548;49.996;8.238;2022-10-04T20:50:48;9.70;99.90
12967;DHT22;6548;49.996;8.238;2022-10-04T20:55:45;9.60;99.90
12967;DHT22;6548;49.996;8.238;2022-10-04T20:58:30;9.60;99.90
12967;DHT22;6548;49.996;8.238;2022-10-04T21:00:59;9.60;99.90
12967;DHT22;6548;49.996;8.238;2022-10-04T21:03:30;9.50;99.90
12967;DHT22;6548;49.996;8.238;2022-10-04T21:06:09;9.50;99.90
12967;DHT22;6548;49.996;8.238;2022-10-04T21:08:35;9.50;99.90
12967;DHT22;6548;49.996;8.238;2022-10-04T21:11:19;9.40;99.90
12967;DHT22;6548;49.996;8.238;2022-10-04T21:13:55;9.30;99.90
12967;DHT22;6548;49.996;8.238;2022-10-04T21:16:43;9.40;99.90
12967;DHT22;6548;49.996;8.238;2022-10-04T21:21:54;9.40;99.90
12967;DHT22;6548;49.996;8.238;2022-10-04T21:27:24;9.30;99.90
12967;DHT22;6548;49.996;8.238;2022-10-04T21:29:50;9.30;99.90
12967;DHT22;6548;49.996;8.238;2022-10-04T21:32:20;9.20;99.90
12967;DHT22;6548;49.996;8.238;2022-10-04T21:34:45;9.20;99.90
12967;DHT22;6548;49.996;8.238;2022-10-04T21:37:11;9.20;99.90
12967;DHT22;6548;49.996;8.238;2022-10-04T21:39:37;9.20;99.90
12967;DHT22;6548;49.996;8.238;2022-10-04T21:42:03;9.20;99.90
12967;DHT22;6548;49.996;8.238;2022-10-04T21:44:28;10.30;99.90
12967;DHT22;6548;49.996;8.238;2022-10-04T21:46:54;9.10;99.90
12967;DHT22;6548;49.996;8.238;2022-10-04T21:49:19;9.10;99.90
12967;DHT22;6548;49.996;8.238;2022-10-04T21:51:45;9.10;99.90
12967;DHT22;6548;49.996;8.238;2022-10-04T21:54:10;9.10;99.90
12967;DHT22;6548;49.996;8.238;2022-10-04T21:56:36;9.10;99.90
12967;DHT22;6548;49.996;8.238;2022-10-04T21:59:02;9.10;99.90
12967;DHT22;6548;49.996;8.238;2022-10-04T22:01:27;9.10;99.90
12967;DHT22;6548;49.996;8.238;2022-10-04T22:03:53;9.00;99.90
12967;DHT22;6548;49.996;8.238;2022-10-04T22:06:18;9.00;99.90
12967;DHT22;6548;49.996;8.238;2022-10-04T22:08:44;8.90;99.90
12967;DHT22;6548;49.996;8.238;2022-10-04T22:11:10;8.90;99.90
12967;DHT22;6548;49.996;8.238;2022-10-04T22:13:36;8.80;99.90
12967;DHT22;6548;49.996;8.238;2022-10-04T22:16:02;8.90;99.90
12967;DHT22;6548;49.996;8.238;2022-10-04T22:18:28;8.80;99.90
12967;DHT22;6548;49.996;8.238;2022-10-04T22:20:54;8.80;99.90
12967;DHT22;6548;49.996;8.238;2022-10-04T22:23:24;8.70;99.90
12967;DHT22;6548;49.996;8.238;2022-10-04T22:25:51;8.70;99.90
12967;DHT22;6548;49.996;8.238;2022-10-04T22:28:27;8.70;99.90
12967;DHT22;6548;49.996;8.238;2022-10-04T22:30:53;8.70;99.90
12967;DHT22;6548;49.996;8.238;2022-10-04T22:33:37;8.60;99.90
12967;DHT22;6548;49.996;8.238;2022-10-04T22:36:21;8.60;99.90
12967;DHT22;6548;49.996;8.238;2022-10-04T22:41:35;8.50;99.90
12967;DHT22;6548;49.996;8.238;2022-10-04T22:44:19;8.60;99.90
12967;DHT22;6548;49.996;8.238;2022-10-04T22:46:48;9.70;99.90
12967;DHT22;6548;49.996;8.238;2022-10-04T22:49:21;8.50;99.90
12967;DHT22;6548;49.996;8.238;2022-10-04T22:51:50;8.50;99.90
12967;DHT22;6548;49.996;8.238;2022-10-04T22:54:18;8.50;99.90
12967;DHT22;6548;49.996;8.238;2022-10-04T22:56:45;8.50;99.90
12967;DHT22;6548;49.996;8.238;2022-10-04T22:59:13;8.40;99.90
12967;DHT22;6548;49.996;8.238;2022-10-04T23:01:39;8.40;99.90
12967;DHT22;6548;49.996;8.238;2022-10-04T23:04:21;8.30;99.90
12967;DHT22;6548;49.996;8.238;2022-10-04T23:06:47;8.30;99.90
12967;DHT22;6548;49.996;8.238;2022-10-04T23:09:13;8.30;99.90
12967;DHT22;6548;49.996;8.238;2022-10-04T23:11:39;8.40;99.90
12967;DHT22;6548;49.996;8.238;2022-10-04T23:14:04;8.40;99.90
12967;DHT22;6548;49.996;8.238;2022-10-04T23:16:30;8.30;99.90
12967;DHT22;6548;49.996;8.238;2022-10-04T23:19:11;8.20;99.90
12967;DHT22;6548;49.996;8.238;2022-10-04T23:21:38;8.20;99.90
12967;DHT22;6548;49.996;8.238;2022-10-04T23:24:18;8.20;99.90
12967;DHT22;6548;49.996;8.238;2022-10-04T23:26:46;8.30;99.90
12967;DHT22;6548;49.996;8.238;2022-10-04T23:29:23;8.40;99.90
12967;DHT22;6548;49.996;8.238;2022-10-04T23:31:50;8.40;99.90
12967;DHT22;6548;49.996;8.238;2022-10-04T23:34:35;8.40;99.90
12967;DHT22;6548;49.996;8.238;2022-10-04T23:37:02;8.30;99.90
12967;DHT22;6548;49.996;8.238;2022-10-04T23:39:32;8.40;99.90
12967;DHT22;6548;49.996;8.238;2022-10-04T23:42:00;8.30;99.90
12967;DHT22;6548;49.996;8.238;2022-10-04T23:44:33;8.30;99.90
12967;DHT22;6548;49.996;8.238;2022-10-04T23:46:58;8.40;99.90
12967;DHT22;6548;49.996;8.238;2022-10-04T23:49:24;8.50;99.90
12967;DHT22;6548;49.996;8.238;2022-10-04T23:51:56;9.20;99.90
12967;DHT22;6548;49.996;8.238;2022-10-04T23:54:23;8.60;99.90
12967;DHT22;6548;49.996;8.238;2022-10-04T23:56:50;8.60;99.90
12967;DHT22;6548;49.996;8.238;2022-10-04T23:59:18;8.50;99.90
